Time;durP1;ratioP1;P1;durP2;ratioP2;P2;SDS_P1;SDS_P2;PMS_P1;PMS_P2;Temp;Humidity;BMP_temperature;BMP_pressure;BME280_temperature;BME280_humidity;BME280_pressure;Samples;Min_cycle;Max_cycle;Signal;HPM_P1;HPM_P2
2021/01/05 00:01:27;;;;;;;14.25;6.97;;;4.10;99.90;;;;;;4994188;28;20056;-77
2021/01/05 00:03:54;;;;;;;13.75;6.72;;;4.10;99.90;;;;;;4995356;28;20085;-77
2021/01/05 00:06:20;;;;;;;14.38;7.57;;;4.00;99.90;;;;;;5003263;28;20698;-78
2021/01/05 00:08:47;;;;;;;15.13;7.68;;;4.00;99.90;;;;;;5004923;28;20119;-78
2021/01/05 00:11:13;;;;;;;15.88;7.45;;;4.10;99.90;;;;;;5002767;28;20219;-78
2021/01/05 00:13:39;;;;;;;15.75;7.45;;;4.10;99.90;;;;;;5000248;28;20057;-76
2021/01/05 00:16:06;;;;;;;25.35;11.05;;;3.90;99.90;;;;;;4983430;28;20058;-77
2021/01/05 00:18:32;;;;;;;19.98;10.55;;;4.20;99.90;;;;;;5004313;28;20744;-78
2021/01/05 00:20:59;;;;;;;33.92;13.70;;;4.50;99.90;;;;;;5002948;28;20053;-75
2021/01/05 00:23:26;;;;;;;16.70;8.20;;;4.30;99.90;;;;;;5006866;28;20057;-77
2021/01/05 00:25:52;;;;;;;15.18;7.40;;;4.20;99.90;;;;;;4987045;28;20093;-78
2021/01/05 00:28:19;;;;;;;16.17;7.90;;;4.10;99.90;;;;;;5003601;28;20050;-78
2021/01/05 00:30:46;;;;;;;16.42;8.38;;;4.10;99.90;;;;;;4984703;28;20081;-80
2021/01/05 00:33:13;;;;;;;16.45;7.65;;;4.40;99.90;;;;;;5002099;28;20128;-78
2021/01/05 00:35:40;;;;;;;21.10;8.25;;;4.10;99.90;;;;;;4976626;28;20086;-78
2021/01/05 00:38:09;;;;;;;16.30;7.75;;;4.40;99.90;;;;;;5005749;28;20097;-78
2021/01/05 00:40:39;;;;;;;20.00;8.77;;;4.20;99.90;;;;;;4985039;28;20058;-79
2021/01/05 00:43:06;;;;;;;18.38;8.77;;;4.30;99.90;;;;;;5001970;28;20081;-76
2021/01/05 00:45:36;;;;;;;20.95;9.02;;;4.10;99.90;;;;;;4998713;28;20049;-78
2021/01/05 00:48:04;;;;;;;15.77;7.67;;;3.90;99.90;;;;;;4984055;28;20054;-77
2021/01/05 00:50:31;;;;;;;16.10;7.47;;;4.10;99.90;;;;;;5000048;28;20089;-76
2021/01/05 00:52:59;;;;;;;17.23;7.75;;;4.10;99.90;;;;;;4985043;28;20454;-78
2021/01/05 00:55:25;;;;;;;15.88;7.93;;;4.00;99.90;;;;;;5009410;28;20472;-79
2021/01/05 00:57:51;;;;;;;14.27;8.25;;;3.90;99.90;;;;;;5006949;28;20050;-77
2021/01/05 01:00:25;;;;;;;16.73;7.90;;;4.00;99.90;;;;;;5001320;28;20133;-77
2021/01/05 01:02:53;;;;;;;15.18;7.50;;;4.10;99.90;;;;;;4987674;28;20042;-76
2021/01/05 01:05:20;;;;;;;19.60;8.90;;;4.00;99.90;;;;;;4985571;28;20072;-80
2021/01/05 01:07:47;;;;;;;15.80;8.32;;;4.40;99.90;;;;;;4966694;28;20049;-77
2021/01/05 01:10:14;;;;;;;17.00;8.07;;;4.00;99.90;;;;;;4985408;28;20062;-77
2021/01/05 01:12:40;;;;;;;17.90;8.27;;;4.00;99.90;;;;;;4986548;28;20077;-78
2021/01/05 01:15:07;;;;;;;15.85;8.23;;;3.90;99.90;;;;;;4997894;28;20048;-77
2021/01/05 01:17:34;;;;;;;14.10;8.07;;;4.00;99.90;;;;;;5003060;28;20053;-77
2021/01/05 01:20:00;;;;;;;17.95;8.07;;;4.10;99.90;;;;;;5005105;28;20129;-76
2021/01/05 01:22:27;;;;;;;17.05;8.45;;;4.10;99.90;;;;;;5005806;28;20139;-77
2021/01/05 01:24:53;;;;;;;16.95;8.23;;;4.40;99.90;;;;;;5002392;28;20053;-77
2021/01/05 01:27:20;;;;;;;17.17;8.35;;;4.00;99.90;;;;;;4982836;28;20077;-77
2021/01/05 01:29:47;;;;;;;15.68;7.57;;;3.90;99.90;;;;;;4999992;28;20077;-79
2021/01/05 01:32:14;;;;;;;15.82;8.73;;;4.40;99.90;;;;;;5001944;28;20057;-77
2021/01/05 01:34:41;;;;;;;17.25;8.50;;;4.20;99.90;;;;;;5005383;28;20089;-77
2021/01/05 01:37:14;;;;;;;19.00;8.55;;;4.00;99.90;;;;;;4980190;28;20136;-78
2021/01/05 01:39:43;;;;;;;20.58;8.88;;;3.90;99.90;;;;;;4987532;28;20037;-77
2021/01/05 01:42:11;;;;;;;18.50;8.20;;;4.00;99.90;;;;;;4984448;28;20074;-76
2021/01/05 01:44:39;;;;;;;17.90;8.68;;;4.00;99.90;;;;;;5002741;28;20266;-76
2021/01/05 01:47:31;;;;;;;17.98;8.35;;;4.10;99.90;;;;;;5002213;28;20152;-76
2021/01/05 01:50:02;;;;;;;14.48;7.93;;;4.00;99.90;;;;;;4998074;28;20053;-78
2021/01/05 01:52:58;;;;;;;18.63;9.00;;;3.90;99.90;;;;;;5002493;28;20084;-78
2021/01/05 01:55:27;;;;;;;19.02;8.73;;;3.90;99.90;;;;;;4982545;28;20145;-78
2021/01/05 01:58:31;;;;;;;18.15;9.02;;;4.10;99.90;;;;;;5002895;28;20101;-78
2021/01/05 02:01:10;;;;;;;15.73;8.23;;;4.10;99.90;;;;;;5005668;28;20470;-77
2021/01/05 02:03:37;;;;;;;16.90;8.82;;;4.10;99.90;;;;;;5002470;28;20042;-76
2021/01/05 02:06:20;;;;;;;20.25;9.07;;;4.20;99.90;;;;;;5004527;28;20062;-77
2021/01/05 02:09:27;;;;;;;23.42;9.02;;;4.40;99.90;;;;;;4993407;28;20053;-78
2021/01/05 02:12:41;;;;;;;16.67;8.77;;;3.90;99.90;;;;;;5009092;28;20416;-77
2021/01/05 02:15:27;;;;;;;17.42;8.38;;;3.90;99.90;;;;;;4982458;28;20112;-77
2021/01/05 02:18:21;;;;;;;17.15;8.23;;;4.40;99.90;;;;;;5003685;28;20446;-77
2021/01/05 02:21:15;;;;;;;16.30;8.45;;;4.00;99.90;;;;;;4982094;28;20096;-77
2021/01/05 02:24:18;;;;;;;17.77;9.15;;;4.40;99.90;;;;;;4967224;28;20045;-79
2021/01/05 02:26:51;;;;;;;22.27;8.63;;;4.10;99.90;;;;;;5002784;28;20493;-78
2021/01/05 02:29:23;;;;;;;17.20;8.63;;;4.00;99.90;;;;;;4986826;28;20510;-78
2021/01/05 02:31:53;;;;;;;20.42;9.27;;;4.00;99.90;;;;;;4987230;28;20081;-77
2021/01/05 02:34:38;;;;;;;20.58;8.73;;;3.90;99.90;;;;;;5005910;28;20061;-77
2021/01/05 02:37:29;;;;;;;17.70;8.73;;;3.90;99.90;;;;;;5005870;28;20373;-79
2021/01/05 02:40:14;;;;;;;18.83;8.32;;;3.90;99.90;;;;;;5002460;28;20053;-77
2021/01/05 02:42:46;;;;;;;19.73;8.88;;;3.90;99.90;;;;;;5000564;28;20120;-78
2021/01/05 02:45:18;;;;;;;18.88;8.55;;;4.10;99.90;;;;;;4986433;28;20054;-77
2021/01/05 02:48:16;;;;;;;18.85;9.10;;;4.10;99.90;;;;;;5004543;28;20054;-78
2021/01/05 02:51:34;;;;;;;19.77;8.77;;;3.80;99.90;;;;;;4987411;28;20050;-78
2021/01/05 02:54:39;;;;;;;16.17;8.13;;;4.10;99.90;;;;;;4959458;28;20045;-77
2021/01/05 02:57:26;;;;;;;18.65;8.15;;;3.90;99.90;;;;;;4965677;28;20061;-78
2021/01/05 03:00:16;;;;;;;17.42;8.68;;;3.90;99.90;;;;;;5003158;28;20057;-78
2021/01/05 03:02:54;;;;;;;17.95;8.75;;;3.80;99.90;;;;;;5007889;28;20092;-78
2021/01/05 03:05:21;;;;;;;19.15;8.25;;;3.80;99.90;;;;;;5007153;28;20077;-78
2021/01/05 03:07:48;;;;;;;18.67;8.88;;;3.80;99.90;;;;;;5007796;28;20124;-79
2021/01/05 03:10:55;;;;;;;19.15;8.43;;;3.90;99.90;;;;;;5007557;28;20050;-78
2021/01/05 03:13:34;;;;;;;23.52;9.40;;;3.90;99.90;;;;;;4991666;28;20042;-78
2021/01/05 03:16:07;;;;;;;17.15;9.27;;;3.70;99.90;;;;;;4990927;28;20054;-78
2021/01/05 03:18:43;;;;;;;15.77;7.97;;;3.90;99.90;;;;;;4988858;28;20088;-80
2021/01/05 03:21:20;;;;;;;19.08;9.35;;;3.80;99.90;;;;;;5007140;28;20042;-78
2021/01/05 03:23:48;;;;;;;18.15;7.97;;;4.10;99.90;;;;;;4989350;28;20442;-79
2021/01/05 03:26:18;;;;;;;16.15;8.20;;;4.20;99.90;;;;;;5008797;28;20136;-77
2021/01/05 03:28:45;;;;;;;19.52;9.00;;;3.90;99.90;;;;;;4985518;28;20054;-79
2021/01/05 03:31:24;;;;;;;16.48;8.57;;;3.80;99.90;;;;;;4988128;28;20061;-79
2021/01/05 03:33:56;;;;;;;22.70;9.30;;;3.90;99.90;;;;;;5004634;28;20077;-78
2021/01/05 03:36:22;;;;;;;17.05;8.65;;;3.90;99.90;;;;;;5006213;28;20444;-79
2021/01/05 03:38:49;;;;;;;18.02;8.57;;;3.90;99.90;;;;;;5003812;28;20077;-79
2021/01/05 03:41:15;;;;;;;19.90;9.52;;;3.90;99.90;;;;;;5001259;28;20531;-78
2021/01/05 03:43:43;;;;;;;19.17;8.65;;;3.90;99.90;;;;;;4991618;28;21551;-78
2021/01/05 03:46:11;;;;;;;17.13;8.65;;;4.00;99.90;;;;;;4987705;28;20088;-78
2021/01/05 03:48:38;;;;;;;18.85;9.23;;;3.90;99.90;;;;;;5008168;28;20054;-78
2021/01/05 03:51:04;;;;;;;21.40;9.13;;;3.80;99.90;;;;;;4999658;28;20054;-80
2021/01/05 03:53:31;;;;;;;16.13;8.63;;;3.90;99.90;;;;;;5007776;28;20123;-79
2021/01/05 03:55:57;;;;;;;19.48;8.02;;;3.90;99.90;;;;;;5003529;28;20070;-77
2021/01/05 03:58:24;;;;;;;20.40;9.35;;;3.90;99.90;;;;;;4988807;28;20054;-78
2021/01/05 04:00:51;;;;;;;21.55;8.98;;;4.00;99.90;;;;;;5001785;28;20088;-77
2021/01/05 04:03:17;;;;;;;20.17;9.25;;;3.90;99.90;;;;;;5007682;28;20054;-78
2021/01/05 04:05:43;;;;;;;20.77;9.30;;;3.90;99.90;;;;;;5004911;28;20097;-78
2021/01/05 04:08:10;;;;;;;16.88;8.57;;;3.90;99.90;;;;;;4989882;28;20866;-78
2021/01/05 04:10:36;;;;;;;18.42;7.85;;;3.80;99.90;;;;;;4986303;28;20081;-79
2021/01/05 04:13:02;;;;;;;21.33;8.93;;;3.80;99.90;;;;;;5004536;28;20604;-78
2021/01/05 04:15:30;;;;;;;19.88;8.25;;;3.90;99.90;;;;;;4991591;28;20062;-78
2021/01/05 04:17:58;;;;;;;19.05;8.63;;;3.80;99.90;;;;;;4986441;28;21105;-78
2021/01/05 04:20:27;;;;;;;20.30;8.65;;;3.70;99.90;;;;;;4997919;28;20523;-78
2021/01/05 04:22:54;;;;;;;21.50;8.88;;;3.90;99.90;;;;;;5006001;28;20461;-78
2021/01/05 04:25:21;;;;;;;20.17;8.90;;;3.80;99.90;;;;;;4985622;28;20096;-78
2021/01/05 04:27:49;;;;;;;19.55;9.52;;;3.90;99.90;;;;;;4983687;28;20137;-78
2021/01/05 04:30:24;;;;;;;21.58;9.55;;;4.10;99.90;;;;;;5004899;28;20085;-78
2021/01/05 04:32:52;;;;;;;18.25;8.48;;;3.90;99.90;;;;;;5004578;28;20058;-78
2021/01/05 04:35:20;;;;;;;21.67;9.27;;;3.90;99.90;;;;;;4992049;28;20057;-78
2021/01/05 04:37:47;;;;;;;17.60;8.63;;;4.10;99.90;;;;;;4992640;28;20085;-78
2021/01/05 04:40:37;;;;;;;21.15;9.45;;;4.10;99.90;;;;;;4981714;28;20077;-77
2021/01/05 04:43:25;;;;;;;19.63;8.73;;;4.00;99.90;;;;;;4987998;28;20076;-77
2021/01/05 04:46:13;;;;;;;22.48;9.07;;;3.80;99.90;;;;;;4995362;28;20058;-78
2021/01/05 04:48:55;;;;;;;20.42;8.52;;;4.00;99.90;;;;;;4990001;28;20046;-77
2021/01/05 04:52:12;;;;;;;20.52;8.68;;;3.90;99.90;;;;;;4988944;28;20057;-78
2021/01/05 04:55:04;;;;;;;16.30;8.23;;;4.00;99.90;;;;;;4945406;28;20094;-77
2021/01/05 04:57:34;;;;;;;16.20;7.63;;;4.10;99.90;;;;;;4987607;28;20069;-77
2021/01/05 05:00:10;;;;;;;17.90;8.60;;;3.90;99.90;;;;;;5005452;28;20096;-78
2021/01/05 05:02:42;;;;;;;17.65;8.70;;;3.80;99.90;;;;;;5006262;28;20049;-78
2021/01/05 05:05:24;;;;;;;17.88;8.05;;;3.80;99.90;;;;;;5002149;28;20080;-80
2021/01/05 05:08:14;;;;;;;18.08;8.18;;;3.80;99.90;;;;;;5011205;28;20512;-78
2021/01/05 05:10:53;;;;;;;18.88;8.88;;;3.70;99.90;;;;;;4987629;28;20049;-78
2021/01/05 05:13:51;;;;;;;20.73;9.25;;;3.80;99.90;;;;;;5005680;28;20141;-78
2021/01/05 05:16:43;;;;;;;16.98;7.88;;;4.10;99.90;;;;;;4988320;28;20077;-78
2021/01/05 05:19:39;;;;;;;19.27;8.18;;;3.80;99.90;;;;;;4945673;28;20373;-78
2021/01/05 05:22:31;;;;;;;21.30;9.30;;;3.90;99.90;;;;;;5006558;28;20099;-78
2021/01/05 05:25:04;;;;;;;17.02;7.28;;;3.90;99.90;;;;;;5006328;28;20125;-78
2021/01/05 05:28:04;;;;;;;18.90;7.78;;;3.90;99.90;;;;;;5002536;28;20046;-77
2021/01/05 05:30:34;;;;;;;;;;;3.80;99.90;;;;;;4992324;28;20082;-77
2021/01/05 05:33:02;;;;;;;18.00;7.85;;;4.10;99.90;;;;;;4996000;28;19987;-77
2021/01/05 05:36:05;;;;;;;21.10;9.60;;;3.70;99.90;;;;;;5006466;28;20110;-78
2021/01/05 05:38:43;;;;;;;20.33;8.40;;;3.70;99.90;;;;;;5003892;28;20065;-77
2021/01/05 05:41:48;;;;;;;22.67;9.13;;;3.80;99.90;;;;;;4990755;28;20144;-77
2021/01/05 05:44:35;;;;;;;17.80;8.73;;;3.70;99.90;;;;;;4990985;28;20485;-79
2021/01/05 05:47:13;;;;;;;18.30;8.48;;;3.90;99.90;;;;;;4995093;28;20070;-78
2021/01/05 05:49:55;;;;;;;20.20;8.38;;;3.90;99.90;;;;;;5005682;28;20077;-78
2021/01/05 05:52:37;;;;;;;21.70;7.97;;;3.90;99.90;;;;;;5009237;28;20827;-78
2021/01/05 05:55:25;;;;;;;16.23;7.85;;;3.90;99.90;;;;;;4993068;28;20053;-78
2021/01/05 05:57:57;;;;;;;18.38;8.32;;;3.90;99.90;;;;;;4993722;28;20046;-78
2021/01/05 06:00:33;;;;;;;16.70;7.55;;;3.90;99.90;;;;;;4989001;28;20136;-78
2021/01/05 06:03:01;;;;;;;16.48;8.13;;;4.10;99.90;;;;;;5009122;28;20121;-78
2021/01/05 06:05:33;;;;;;;17.27;8.02;;;3.90;99.90;;;;;;5000765;28;20451;-77
2021/01/05 06:08:01;;;;;;;16.88;8.32;;;3.90;99.90;;;;;;5012432;28;20056;-80
2021/01/05 06:10:28;;;;;;;19.52;8.75;;;3.80;99.90;;;;;;4994137;28;20057;-78
2021/01/05 06:12:55;;;;;;;19.00;8.18;;;3.80;99.90;;;;;;4995461;28;20144;-78
2021/01/05 06:15:22;;;;;;;21.48;8.98;;;3.70;99.90;;;;;;4996172;28;20108;-78
2021/01/05 06:17:49;;;;;;;18.20;8.18;;;3.80;99.90;;;;;;5006113;28;20038;-77
2021/01/05 06:20:16;;;;;;;15.13;7.88;;;3.80;99.90;;;;;;4995020;28;20092;-78
2021/01/05 06:22:43;;;;;;;14.98;8.25;;;3.70;99.90;;;;;;4988565;28;20131;-79
2021/01/05 06:25:11;;;;;;;17.70;8.30;;;3.90;99.90;;;;;;5004492;28;20048;-78
2021/01/05 06:27:38;;;;;;;16.58;8.15;;;3.90;99.90;;;;;;5011437;28;20466;-77
2021/01/05 06:30:06;;;;;;;16.73;7.95;;;4.10;99.90;;;;;;5007841;28;20081;-78
2021/01/05 06:32:33;;;;;;;17.73;7.97;;;4.20;99.90;;;;;;5003479;28;20165;-77
2021/01/05 06:35:00;;;;;;;19.90;8.82;;;4.00;99.90;;;;;;5006093;28;20434;-77
2021/01/05 06:37:26;;;;;;;16.45;7.70;;;3.90;99.90;;;;;;4991154;28;20125;-78
2021/01/05 06:39:53;;;;;;;20.65;8.20;;;3.90;99.90;;;;;;5008985;28;20074;-78
2021/01/05 06:42:20;;;;;;;19.05;7.53;;;4.00;99.90;;;;;;5005276;28;20122;-79
2021/01/05 06:44:46;;;;;;;14.57;7.63;;;4.00;99.90;;;;;;4990810;28;20444;-78
2021/01/05 06:47:13;;;;;;;20.67;7.82;;;3.90;99.90;;;;;;5000669;28;20563;-77
2021/01/05 06:49:41;;;;;;;17.90;7.97;;;3.90;99.90;;;;;;5000690;28;20054;-78
2021/01/05 06:52:08;;;;;;;13.70;7.05;;;3.80;99.90;;;;;;5008323;28;20049;-78
2021/01/05 06:54:34;;;;;;;19.25;9.73;;;3.60;99.90;;;;;;5008331;28;20049;-78
2021/01/05 06:57:01;;;;;;;17.75;7.68;;;4.00;99.90;;;;;;5004671;28;20144;-78
2021/01/05 06:59:28;;;;;;;18.00;7.55;;;4.00;99.90;;;;;;5007895;28;20425;-79
2021/01/05 07:01:56;;;;;;;17.23;8.05;;;3.80;99.90;;;;;;4988623;28;20445;-77
2021/01/05 07:04:23;;;;;;;18.52;7.85;;;3.90;99.90;;;;;;4995761;28;20116;-77
2021/01/05 07:06:50;;;;;;;16.38;8.25;;;3.90;99.90;;;;;;5007396;28;20539;-77
2021/01/05 07:09:18;;;;;;;13.27;7.78;;;3.90;99.90;;;;;;5010510;28;20061;-77
2021/01/05 07:11:45;;;;;;;19.60;8.18;;;4.10;99.90;;;;;;5009217;28;20480;-77
2021/01/05 07:14:17;;;;;;;16.23;7.72;;;4.00;99.90;;;;;;4990226;28;20111;-78
2021/01/05 07:16:43;;;;;;;21.75;8.00;;;3.90;99.90;;;;;;5007567;28;20065;-78
2021/01/05 07:19:10;;;;;;;16.83;6.88;;;4.10;99.90;;;;;;4992865;28;20552;-78
2021/01/05 07:21:36;;;;;;;14.60;7.35;;;3.90;99.90;;;;;;4980153;28;20133;-78
2021/01/05 07:24:03;;;;;;;15.50;7.32;;;3.90;99.90;;;;;;5006681;28;20136;-78
2021/01/05 07:26:39;;;;;;;17.13;8.25;;;4.00;99.90;;;;;;4991971;28;20474;-79
2021/01/05 07:29:07;;;;;;;14.88;7.13;;;3.80;99.90;;;;;;4994212;28;20053;-79
2021/01/05 07:31:33;;;;;;;16.35;7.85;;;3.90;99.90;;;;;;5006486;28;20144;-77
2021/01/05 07:33:59;;;;;;;12.90;6.65;;;4.00;99.90;;;;;;5005778;28;20041;-77
2021/01/05 07:36:33;;;;;;;13.90;6.85;;;4.10;99.90;;;;;;5007272;28;20525;-77
2021/01/05 07:39:00;;;;;;;15.35;7.78;;;4.10;99.90;;;;;;4991249;28;20545;-80
2021/01/05 07:41:27;;;;;;;17.08;7.72;;;3.90;99.90;;;;;;4989339;28;20057;-79
2021/01/05 07:43:53;;;;;;;19.70;7.88;;;3.90;99.90;;;;;;4986160;28;20096;-79
2021/01/05 07:46:21;;;;;;;17.10;6.88;;;3.90;99.90;;;;;;5008223;28;20050;-77
2021/01/05 07:48:47;;;;;;;14.02;6.10;;;3.90;99.90;;;;;;5007718;28;20136;-78
2021/01/05 07:51:18;;;;;;;16.08;7.68;;;3.90;99.90;;;;;;4984416;28;20111;-77
2021/01/05 07:53:44;;;;;;;18.45;7.10;;;3.80;99.90;;;;;;4988281;28;20157;-79
2021/01/05 07:56:11;;;;;;;16.10;8.05;;;4.20;99.90;;;;;;4988568;28;20050;-78
2021/01/05 07:58:37;;;;;;;16.75;7.03;;;3.90;99.90;;;;;;4992101;28;20077;-79
2021/01/05 08:01:04;;;;;;;19.67;7.90;;;4.00;99.90;;;;;;5000275;28;20125;-79
2021/01/05 08:03:34;;;;;;;19.75;7.65;;;4.10;99.90;;;;;;5008782;28;20092;-78
2021/01/05 08:06:05;;;;;;;23.27;8.40;;;3.90;99.90;;;;;;5004460;28;20050;-77
2021/01/05 08:08:31;;;;;;;13.50;7.38;;;3.90;99.90;;;;;;5008647;28;20078;-79
2021/01/05 08:10:58;;;;;;;18.05;8.20;;;3.90;99.90;;;;;;5003200;28;20110;-78
2021/01/05 08:13:27;;;;;;;24.15;7.70;;;4.10;99.90;;;;;;5004838;28;20046;-79
2021/01/05 08:15:53;;;;;;;17.58;8.45;;;4.10;99.90;;;;;;4992878;28;20046;-78
2021/01/05 08:18:24;;;;;;;16.67;8.07;;;4.00;99.90;;;;;;4986415;28;20490;-78
2021/01/05 08:20:51;;;;;;;19.17;8.00;;;4.00;99.90;;;;;;4990741;28;20108;-78
2021/01/05 08:23:18;;;;;;;17.73;8.35;;;4.10;99.90;;;;;;5005377;28;20077;-78
2021/01/05 08:25:45;;;;;;;15.98;7.18;;;3.80;99.90;;;;;;4994027;28;20438;-79
2021/01/05 08:28:12;;;;;;;16.05;7.20;;;4.00;99.90;;;;;;4988627;28;20318;-78
2021/01/05 08:30:39;;;;;;;15.43;6.63;;;4.00;99.90;;;;;;5004757;28;20132;-78
2021/01/05 08:33:09;;;;;;;13.65;6.47;;;4.10;99.90;;;;;;5008454;28;20046;-78
2021/01/05 08:35:36;;;;;;;18.88;7.70;;;4.00;99.90;;;;;;4993151;28;20100;-79
2021/01/05 08:38:03;;;;;;;15.60;7.15;;;3.90;99.90;;;;;;5006635;28;20484;-78
2021/01/05 08:40:33;;;;;;;17.13;6.97;;;4.20;99.90;;;;;;4991014;28;20100;-78
2021/01/05 08:43:02;;;;;;;13.15;6.97;;;4.00;99.90;;;;;;5000974;28;20397;-78
2021/01/05 08:45:29;;;;;;;17.33;7.28;;;4.00;99.90;;;;;;4984065;28;20218;-78
2021/01/05 08:47:56;;;;;;;19.20;7.68;;;4.10;99.90;;;;;;4986961;28;20093;-78
2021/01/05 08:50:28;;;;;;;15.68;7.43;;;4.20;99.90;;;;;;4988314;28;20405;-78
2021/01/05 08:53:06;;;;;;;18.90;7.45;;;4.10;99.90;;;;;;4988398;28;20696;-77
2021/01/05 08:55:37;;;;;;;20.23;8.32;;;4.40;99.90;;;;;;4988648;28;20112;-78
2021/01/05 08:58:04;;;;;;;15.73;7.70;;;4.10;99.90;;;;;;4987215;28;20129;-78
2021/01/05 09:00:31;;;;;;;16.17;7.40;;;4.10;99.90;;;;;;4999800;28;20062;-78
2021/01/05 09:02:59;;;;;;;24.27;8.02;;;4.20;99.90;;;;;;4991441;28;20156;-77
2021/01/05 09:05:43;;;;;;;19.42;7.90;;;4.10;99.90;;;;;;5011358;28;20069;-77
2021/01/05 09:08:09;;;;;;;17.90;7.32;;;4.10;99.90;;;;;;5010949;28;20486;-78
2021/01/05 09:10:35;;;;;;;16.02;7.95;;;4.20;99.90;;;;;;4994560;28;20053;-78
2021/01/05 09:13:02;;;;;;;15.55;7.50;;;4.40;99.90;;;;;;5008887;28;20076;-78
2021/01/05 09:15:28;;;;;;;17.70;7.55;;;4.30;99.90;;;;;;5006076;28;20057;-78
2021/01/05 09:17:54;;;;;;;17.02;7.55;;;4.30;99.90;;;;;;4990729;28;20450;-78
2021/01/05 09:20:24;;;;;;;13.70;7.10;;;4.40;99.90;;;;;;4993028;28;20073;-77
2021/01/05 09:22:54;;;;;;;19.90;7.68;;;4.30;99.90;;;;;;5007146;28;20046;-78
2021/01/05 09:25:21;;;;;;;16.02;7.22;;;4.30;99.90;;;;;;5013525;28;20042;-79
2021/01/05 09:27:53;;;;;;;14.52;7.15;;;4.20;99.90;;;;;;4994337;28;20050;-80
2021/01/05 09:30:20;;;;;;;;;;;4.40;99.90;;;;;;4990377;28;20121;-78
2021/01/05 09:32:47;;;;;;;13.60;7.22;;;4.30;99.90;;;;;;4996004;28;19959;-79
2021/01/05 09:35:14;;;;;;;15.20;6.63;;;4.60;99.90;;;;;;5010097;28;20069;-78
2021/01/05 09:37:43;;;;;;;18.35;7.82;;;4.40;99.90;;;;;;5007737;28;20524;-77
2021/01/05 09:40:10;;;;;;;16.63;7.22;;;4.50;99.90;;;;;;5008897;28;20054;-79
2021/01/05 09:42:36;;;;;;;19.95;7.72;;;4.50;99.90;;;;;;4994489;28;20073;-78
2021/01/05 09:45:05;;;;;;;17.45;7.30;;;4.70;99.90;;;;;;4990550;28;20452;-79
2021/01/05 09:47:34;;;;;;;20.08;7.63;;;4.40;99.90;;;;;;4985918;28;20069;-78
2021/01/05 09:50:02;;;;;;;18.13;8.05;;;4.40;99.90;;;;;;4990782;28;20049;-80
2021/01/05 09:52:35;;;;;;;18.47;8.17;;;4.50;99.90;;;;;;5002313;28;20054;-76
2021/01/05 09:55:03;;;;;;;16.15;7.25;;;4.50;99.90;;;;;;5006797;28;20426;-81
2021/01/05 09:57:29;;;;;;;18.90;7.68;;;4.50;99.90;;;;;;5005430;28;20516;-80
2021/01/05 09:59:55;;;;;;;16.65;7.25;;;4.50;99.90;;;;;;4991472;28;20511;-79
2021/01/05 10:02:22;;;;;;;16.95;6.82;;;4.50;99.90;;;;;;4999357;28;20168;-80
2021/01/05 10:04:48;;;;;;;16.42;7.25;;;4.50;99.90;;;;;;5000682;28;20493;-78
2021/01/05 10:07:15;;;;;;;15.48;7.45;;;4.40;99.90;;;;;;4990257;28;20054;-78
2021/01/05 10:09:41;;;;;;;19.10;8.23;;;4.60;99.90;;;;;;5002796;28;20058;-79
2021/01/05 10:12:08;;;;;;;20.10;8.25;;;4.60;99.90;;;;;;4980573;28;20494;-79
2021/01/05 10:14:34;;;;;;;14.93;6.72;;;4.60;99.90;;;;;;5006227;28;20153;-78
2021/01/05 10:17:00;;;;;;;20.50;8.18;;;4.50;99.90;;;;;;5002494;28;20089;-77
2021/01/05 10:19:27;;;;;;;15.13;7.30;;;4.50;99.90;;;;;;4984306;28;20146;-77
2021/01/05 10:21:54;;;;;;;17.52;8.60;;;4.60;99.90;;;;;;5007969;28;20084;-78
2021/01/05 10:24:20;;;;;;;19.23;8.45;;;4.80;99.90;;;;;;4988996;28;20049;-79
2021/01/05 10:26:54;;;;;;;18.33;8.05;;;4.60;99.90;;;;;;5003856;28;20082;-77
2021/01/05 10:29:23;;;;;;;16.83;7.55;;;4.70;99.90;;;;;;4989221;28;20216;-79
2021/01/05 10:31:50;;;;;;;16.92;7.80;;;4.60;99.90;;;;;;4998449;28;20119;-78
2021/01/05 10:34:19;;;;;;;17.20;8.18;;;4.70;99.90;;;;;;4987432;28;20145;-78
2021/01/05 10:36:57;;;;;;;16.53;7.87;;;4.70;99.90;;;;;;4986518;28;20143;-77
2021/01/05 10:39:25;;;;;;;17.85;8.77;;;5.00;99.90;;;;;;4986364;28;20050;-78
2021/01/05 10:41:51;;;;;;;20.13;8.00;;;4.80;99.90;;;;;;5000944;28;20212;-78
2021/01/05 10:44:21;;;;;;;16.80;7.55;;;4.80;99.90;;;;;;4996980;28;20081;-80
2021/01/05 10:46:48;;;;;;;21.45;8.48;;;4.90;99.90;;;;;;4969531;28;20054;-75
2021/01/05 10:49:15;;;;;;;17.20;7.40;;;4.90;99.90;;;;;;5001099;28;20480;-77
2021/01/05 10:51:49;;;;;;;19.02;7.60;;;4.90;99.90;;;;;;4987274;28;20057;-77
2021/01/05 10:54:18;;;;;;;16.10;7.72;;;5.00;99.90;;;;;;4999962;28;20168;-76
2021/01/05 10:56:45;;;;;;;20.30;8.40;;;5.20;99.90;;;;;;5000767;28;20416;-77
2021/01/05 10:59:14;;;;;;;21.23;9.02;;;5.10;99.90;;;;;;4977530;28;20132;-77
2021/01/05 11:01:41;;;;;;;19.00;8.07;;;5.10;99.90;;;;;;4980121;28;21889;-77
2021/01/05 11:04:07;;;;;;;17.35;7.63;;;5.00;99.90;;;;;;4987560;28;20516;-77
2021/01/05 11:06:36;;;;;;;19.83;8.20;;;5.00;99.90;;;;;;5003340;28;20769;-79
2021/01/05 11:09:04;;;;;;;16.20;7.88;;;5.10;99.90;;;;;;4985500;28;20058;-82
2021/01/05 11:11:31;;;;;;;18.40;7.75;;;4.80;99.90;;;;;;4984537;28;20056;-80
2021/01/05 11:13:58;;;;;;;19.27;8.18;;;4.90;99.90;;;;;;4985380;28;20053;-81
2021/01/05 11:16:25;;;;;;;18.70;7.57;;;5.10;99.90;;;;;;4984922;28;20054;-81
2021/01/05 11:18:52;;;;;;;16.98;7.65;;;5.00;99.90;;;;;;4986881;28;20061;-80
2021/01/05 11:21:18;;;;;;;16.45;7.55;;;4.90;99.90;;;;;;4983850;28;20417;-79
2021/01/05 11:23:45;;;;;;;17.02;6.88;;;4.80;99.90;;;;;;5000452;28;20089;-80
2021/01/05 11:26:12;;;;;;;19.75;8.50;;;4.80;99.90;;;;;;5002231;28;20074;-82
2021/01/05 11:28:52;;;;;;;20.55;8.18;;;4.90;99.90;;;;;;5001254;28;20077;-78
2021/01/05 11:31:19;;;;;;;15.38;7.60;;;5.00;99.90;;;;;;4986909;28;20050;-79
2021/01/05 11:33:46;;;;;;;17.52;8.05;;;4.80;99.90;;;;;;5000292;28;20100;-78
2021/01/05 11:36:21;;;;;;;18.80;8.65;;;4.90;99.90;;;;;;4983851;28;20144;-79
2021/01/05 11:38:49;;;;;;;22.13;8.73;;;4.90;99.90;;;;;;5002186;28;20093;-77
2021/01/05 11:41:29;;;;;;;23.13;9.35;;;5.00;99.90;;;;;;4985468;28;20054;-79
2021/01/05 11:43:57;;;;;;;20.63;8.63;;;4.90;99.90;;;;;;4998721;28;20758;-79
2021/01/05 11:46:31;;;;;;;17.42;8.73;;;5.00;99.90;;;;;;5114895;27;20400;-83
2021/01/05 11:48:58;;;;;;;24.17;8.65;;;5.30;99.90;;;;;;5118630;27;20075;-78
2021/01/05 11:51:28;;;;;;;22.58;9.07;;;5.10;99.90;;;;;;5113666;28;20039;-79
2021/01/05 11:53:54;;;;;;;15.83;8.20;;;5.10;99.90;;;;;;5118488;27;20154;-80
2021/01/05 11:56:25;;;;;;;16.88;7.80;;;5.20;99.90;;;;;;5115222;27;20340;-79
2021/01/05 11:58:53;;;;;;;17.95;8.20;;;5.00;99.90;;;;;;5114335;27;20154;-81
2021/01/05 12:01:21;;;;;;;18.75;8.20;;;5.10;99.90;;;;;;5105542;27;20055;-78
2021/01/05 12:03:49;;;;;;;16.63;8.50;;;5.20;99.90;;;;;;5113124;28;20061;-81
2021/01/05 12:06:21;;;;;;;15.43;7.70;;;5.30;99.90;;;;;;5115510;28;20566;-79
2021/01/05 12:08:48;;;;;;;18.33;8.55;;;5.20;99.90;;;;;;5121775;27;20940;-80
2021/01/05 12:11:21;;;;;;;17.77;8.38;;;5.10;99.90;;;;;;5118452;28;20933;-78
2021/01/05 12:13:47;;;;;;;17.15;8.00;;;5.20;99.90;;;;;;5116843;27;20138;-76
2021/01/05 12:16:24;;;;;;;17.35;7.57;;;5.30;99.90;;;;;;5115458;27;20053;-77
2021/01/05 12:18:52;;;;;;;17.10;8.60;;;5.10;99.90;;;;;;5117293;28;20507;-79
2021/01/05 12:21:23;;;;;;;14.55;7.55;;;5.20;99.90;;;;;;5117994;27;20078;-76
2021/01/05 12:23:50;;;;;;;16.42;8.57;;;5.10;99.90;;;;;;5118382;28;20084;-80
2021/01/05 12:26:26;;;;;;;17.75;8.20;;;5.10;99.90;;;;;;5116651;27;20047;-78
2021/01/05 12:28:53;;;;;;;14.73;8.18;;;5.20;99.90;;;;;;5117028;27;20075;-78
2021/01/05 12:31:21;;;;;;;17.75;7.97;;;5.20;99.90;;;;;;5118767;27;20048;-81
2021/01/05 12:33:47;;;;;;;15.02;7.25;;;5.10;99.90;;;;;;5122109;28;20083;-81
2021/01/05 12:36:27;;;;;;;14.80;8.27;;;5.20;99.90;;;;;;5118011;27;20514;-80
2021/01/05 12:38:54;;;;;;;15.15;7.53;;;5.20;99.90;;;;;;5118570;27;20441;-77
2021/01/05 12:41:21;;;;;;;15.95;7.10;;;5.20;99.90;;;;;;5118666;27;20468;-77
2021/01/05 12:43:48;;;;;;;17.73;8.00;;;5.20;99.90;;;;;;5111624;28;20124;-79
2021/01/05 12:46:25;;;;;;;15.10;7.78;;;5.10;99.90;;;;;;5116598;27;20448;-79
2021/01/05 12:48:52;;;;;;;13.23;6.18;;;5.10;99.90;;;;;;5112608;27;20139;-78
2021/01/05 12:51:39;;;;;;;22.00;10.75;;;5.30;99.90;;;;;;5116307;28;20470;-77
2021/01/05 12:54:07;;;;;;;17.17;8.88;;;5.20;99.90;;;;;;5114345;27;20502;-76
2021/01/05 12:56:34;;;;;;;21.13;9.43;;;5.10;99.90;;;;;;5115496;28;20079;-78
2021/01/05 12:59:01;;;;;;;15.65;7.78;;;5.20;99.90;;;;;;5103025;28;20123;-77
2021/01/05 13:01:27;;;;;;;19.10;9.20;;;5.30;99.90;;;;;;5099585;27;20052;-78
2021/01/05 13:03:54;;;;;;;14.52;7.70;;;5.20;99.90;;;;;;5109892;28;20766;-78
2021/01/05 13:06:20;;;;;;;15.80;7.97;;;5.20;99.90;;;;;;5102924;28;20051;-80
2021/01/05 13:08:48;;;;;;;19.70;7.60;;;5.20;99.90;;;;;;5106279;28;20090;-78
2021/01/05 13:11:23;;;;;;;17.25;7.72;;;5.20;99.90;;;;;;5105049;27;20083;-78